sim
Sign-in with your pilot id or email,
or register
Callsign
Passwort

Schedule Details

Flight Number: OEO6013
Departure: Helsinki Vantaa Airport (EFHK) at 05:00
Arrival: Munich Airport (EDDM) at 08:00

Weather Information
Getting current METAR information for EFHK 240850Z 12006KT CAVOK 17/15 Q1006 NOSIG
Getting current METAR information for EDDM 240850Z 25008KT CAVOK 17/14 Q1011 NOSIG

Schedule Frequency

Route Map